Résultats

Cross de la Nativititée : C06 : 3em Garçons. Édition 2017.

1.2 Km
28/04/2017 à 08:00:00 - ()
98 arrivant(e)s.


 
Les autres classements de cet évènement




Place▲ Temps Dossard Nom Prenom Categ #Categ Sexe #Sexe Club Vit Moy Diplôme Partager
1 00:04:03 692 ROUX VICTOR MIM 1 M 1 3 7 17,78
2 00:04:16 574 BESSE PABLO MIM 2 M 2 3 4 16,88
3 00:04:16 618 MANGIATORDI JULIEN MIM 3 M 3 3 5 16,88
4 00:04:17 681 GUAY MATHIS MIM 4 M 4 3 7 16,81
5 00:04:24 495 JOUBEAUX ARTHUR MIM 5 M 5 3 1 16,36
6 00:04:29 513 BAROUX ALEXANDRE MIM 6 M 6 3 2 16,06
7 00:04:29 570 ROCHEREUX-TEISSIER LOUIS MIM 7 M 7 3 3 16,06
8 00:04:29 546 BORTOLI VALENTIN MIM 8 M 8 3 3 16,06
9 00:04:33 686 MAZARI MAXIME MIM 9 M 9 3 7 15,82
10 00:04:35 687 MENARD-LANSAC JOSEPH MIM 10 M 10 3 7 15,71
11 00:04:36 541 TROISE ADRIEN MIM 11 M 11 3 2 15,65
12 00:04:36 572 RONOT BAPTISTE MIM 12 M 12 3 3 15,65
13 00:04:37 571 ROKIA NOAH MIM 13 M 13 3 3 15,60
14 00:04:39 645 GARBARINI GUILLAUME MIM 14 M 14 3 6 15,48
15 00:04:39 654 MERY ALEXANDRE MIM 15 M 15 3 6 15,48
16 00:04:41 528 MICHEL ADRIEN MIM 16 M 16 3 2 15,37
17 00:04:43 525 MEDEBBEUR ILIAN MIM 17 M 17 3 2 15,27
18 00:04:45 485 BOURDON JULES MIM 18 M 18 3 1 15,16
19 00:04:45 689 MOURON YANIS MIM 19 M 19 3 7 15,16
20 00:04:46 550 CHERRY THOMAS MIM 20 M 20 3 3 15,10
21 00:04:47 643 DHONDT MAXENCE MIM 21 M 21 3 6 15,05
22 00:04:51 641 DADOLLE TRISTAN CAM 1 M 22 3 6 14,85
23 00:04:53 510 VINCOURT ELIOTT MIM 22 M 23 3 1 14,74
24 00:04:55 526 MERCIER LOAN MIM 23 M 24 3 2 14,64
25 00:04:56 695 SORE-LARREGAIN JULES MIM 24 M 25 3 7 14,59
26 00:04:57 630 VILLECROZE SACHA MIM 25 M 26 3 5 14,55
27 00:04:57 598 UNAL NOYAN MIM 26 M 27 3 4 14,55
28 00:04:59 679 GARDET QUENTIN MIM 27 M 28 3 7 14,45
29 00:04:59 605 BOMATI MAXIME MIM 28 M 29 3 5 14,45
30 00:05:01 563 HIVER NATHANAEL MIM 29 M 30 3 3 14,35
31 00:05:04 489 DAVID MAXIME MIM 30 M 31 3 1 14,21
32 00:05:04 498 MESTRE MATTEO MIM 31 M 32 3 1 14,21
33 00:05:06 531 PERRONE TEO MIM 32 M 33 3 2 14,12
34 00:05:07 629 VIGREUX CHARLES MIM 33 M 34 3 5 14,07
35 00:05:09 612 DUMOND LEO MIM 34 M 35 3 5 13,98
36 00:05:09 555 FAUCHEUR NICOLAS MIM 35 M 36 3 3 13,98
37 00:05:10 644 ESMIOL FABIO MIM 36 M 37 3 6 13,94
38 00:05:11 652 MARIANI MAXIME MIM 37 M 38 3 6 13,89
39 00:05:11 529 MILLEVILLE AXEL MIM 38 M 39 3 2 13,89
40 00:05:13 621 METAIS ALEXANDRE BEM 1 M 40 3 5 13,80
41 00:05:14 551 CORRE WILLIAM MIM 39 M 41 3 3 13,76
42 00:05:15 554 EL-YAHMIDI NASSIM MIM 40 M 42 3 3 13,71
43 00:05:16 553 DUVAL GABRIEL MIM 41 M 43 3 3 13,67
44 00:05:16 503 PECOT-GRILL LEO CAM 2 M 44 3 1 13,67
45 00:05:16 624 MONDIN GAUTHIER MIM 42 M 45 3 5 13,67
46 00:05:16 642 DE-PALMA ALEXANDRE MIM 43 M 46 3 6 13,67
47 00:05:19 548 BOULLIER PAUL MIM 44 M 47 3 3 13,54
48 00:05:19 669 BERTHE HUGO MIM 45 M 48 3 7 13,54
49 00:05:20 680 GARDET THEO MIM 46 M 49 3 7 13,50
50 00:05:23 509 VIGNOLLES THIBAULT MIM 47 M 50 3 1 13,37
51 00:05:26 603 BAGLIONE PIERRE-SACHA MIM 48 M 51 3 5 13,25
52 00:05:27 560 GUERINEL PIERRICK MIM 49 M 52 3 3 13,21
53 00:05:28 597 TRONQUIT LOUIS CAM 3 M 53 3 4 13,17
54 00:05:31 492 DEAL BAPTISTE CAM 4 M 54 3 1 13,05
55 00:05:32 628 SARTORIS PIERRE-LOUIS MIM 50 M 55 3 5 13,01
56 00:05:33 517 DAVID ALEXANDRE MIM 51 M 56 3 2 12,97
57 00:05:34 671 BOUISSET ADRIEN MIM 52 M 57 3 7 12,93
58 00:05:35 684 LEROY ALEXIS MIM 53 M 58 3 7 12,90
59 00:05:38 569 RENE-WORMS VINCENT MIM 54 M 59 3 3 12,78
60 00:05:39 577 DANE SAM MIM 55 M 60 3 4 12,74
61 00:05:43 634 AIRAUDO BAPTISTE MIM 56 M 61 3 6 12,59
62 00:05:44 558 GAMBINO LEO MIM 57 M 62 3 3 12,56
63 00:05:44 547 BOUC VALENTIN MIM 58 M 63 3 3 12,56
64 00:05:44 616 LEBEAU ALEXANDRE MIM 59 M 64 3 5 12,56
65 00:05:46 651 LUCA LIVIO MIM 60 M 65 3 6 12,49
66 00:05:53 619 MARGAILLAN KYLIAN MIM 61 M 66 3 5 12,24
67 00:05:55 512 ARMAND CAMILLE MIM 62 M 67 3 2 12,17
68 00:05:56 590 POURCHOT DANIEL-VLADYS MIM 63 M 68 3 4 12,13
69 00:05:57 672 CARENOU TANGUY MIM 64 M 69 3 7 12,10
70 00:06:03 516 COLIN BASTIEN CAM 5 M 70 3 2 11,90
71 00:06:05 552 CRISTOFINI THEO MIM 65 M 71 3 3 11,84
72 00:06:07 617 LOVICHI ELIOR MIM 66 M 72 3 5 11,77
73 00:06:07 491 DE-VERBIGIER-DE-ST-PAUL GREGOIRE MIM 67 M 73 3 1 11,77
74 00:06:08 675 COURTIER AYMERIC MIM 68 M 74 3 7 11,74
75 00:06:09 566 NGUYEN DANIEL CAM 6 M 75 3 3 11,71
76 00:06:12 664 TAIEB RUDY MIM 69 M 76 3 6 11,61
77 00:06:21 608 CIREE AURELIEN MIM 70 M 77 3 5 11,34
78 00:06:22 486 CAUMEIL HELIAN BEM 2 M 78 3 1 11,31
79 00:06:27 659 PIGNON GABRIEL CAM 7 M 79 3 6 11,16
80 00:06:28 648 HOUY NICOLAS MIM 71 M 80 3 6 11,13
81 00:06:29 665 WALTER LOIC MIM 72 M 81 3 6 11,11
82 00:06:31 640 CISAMOLO AUGUSTIN MIM 73 M 82 3 6 11,05
83 00:06:32 500 MINGUELLA MATTHIEU MIM 74 M 83 3 1 11,02
84 00:06:33 632 YALAOUI ILIES MIM 75 M 84 3 5 10,99
85 00:06:33 646 GROUALLE BASTIEN MIM 76 M 85 3 6 10,99
86 00:06:39 633 AGOSTINI BAPTISTE MIM 77 M 86 3 6 10,83
87 00:06:57 518 DEVENNE GABRIEL MIM 78 M 87 3 2 10,36
88 00:07:06 523 GUINARD ANTOINE MIM 79 M 88 3 2 10,14
89 00:07:11 670 BERTHOLIO GUILLAUME MIM 80 M 89 3 7 10,02
90 00:07:18 593 SANYAS ARTHUR MIM 81 M 90 3 4 9,86
91 00:07:32 599 VILAREL MAXIME MIM 82 M 91 3 4 9,56
92 00:08:05 504 RICHAUD MARIUS MIM 83 M 92 3 1 8,91
93 00:08:07 584 LONGUEVILLE NICOLAS MIM 84 M 93 3 4 8,87
94 00:08:07 524 KLINCKEMAILLIE LOUIS MIM 85 M 94 3 2 8,87
95 00:08:08 538 THIRION ETHAN MIM 86 M 95 3 2 8,85
96 00:08:10 557 FOURQUET MATEO MIM 87 M 96 3 3 8,82
97 00:08:18 601 ZURITA ANTON MIM 88 M 97 3 4 8,67
98 00:08:20 484 BERTHIER MAXIME MIM 89 M 98 3 1 8,64